Bouzas — EAPC — position and weather

sailwx.info

Track history (hours):
 
Tides and Currents Weather Stations Pressure Air Temp Water Temp Dewpoint Dewpoint Depression Visibility Wind Speed Wind Dir Waves Ship Positions

Bouzas

Last reported at 2015-Mar-26 21:21 UTC. Time now 2015-Mar-27 03:35 UTC.
Position N 38°01' W 000°03'.

Length 142 m; draft 5.8 m.

Type: Cargo ship. MMSI: 224029000.

Date/timePositionNaut miles runAvg speedWind from/ knotsBaromVisibWave heightAir tempDewpointWater temp
2015-Mar-26 21:21N 38°01' W 000°03'1418.1
2015-Mar-26 20:33N 37°51' W 000°16'1919.1
2015-Mar-26 19:33N 37°35' W 000°29'1919.0
2015-Mar-26 18:33N 37°22' W 000°47'87717.5
2015-Mar-24 16:27N 29°09' W 015°14'1517.1
2015-Mar-24 15:33N 28°59' W 015°27'1717.2
2015-Mar-24 14:33N 28°48' W 015°42'1717.2
2015-Mar-24 13:33N 28°37' W 015°57'1716.7
2015-Mar-24 12:32N 28°29' W 016°14'1 0.4
2015-Mar-24 11:15N 28°29' W 016°15'0 0.0
2015-Mar-24 10:30N 28°29' W 016°15'0 0.0
2015-Mar-24 09:15N 28°29' W 016°15'0 0.0
2015-Mar-24 08:33N 28°29' W 016°15'0 0.0
2015-Mar-24 07:33N 28°29' W 016°15'0 0.0
2015-Mar-24 06:33N 28°29' W 016°15'0 0.0
2015-Mar-24 05:32N 28°29' W 016°15'0 0.0
2015-Mar-24 03:32N 28°29' W 016°15'0 0.0
2015-Mar-24 02:29N 28°29' W 016°15'0 0.0
2015-Mar-24 01:32N 28°29' W 016°15'0 0.0
2015-Mar-24 00:20N 28°29' W 016°15'0 0.0
2015-Mar-23 23:32N 28°29' W 016°15'0 0.1
2015-Mar-23 22:11N 28°28' W 016°15'812.6
2015-Mar-23 21:33N 28°26' W 016°06'1817.7
2015-Mar-23 20:33N 28°20' W 015°47'1717.5
2015-Mar-23 19:33N 28°14' W 015°29'6 4.7
2015-Mar-23 18:19N 28°09' W 015°25'0 0.0
2015-Mar-23 17:31N 28°09' W 015°25'0 0.0
2015-Mar-23 16:22N 28°09' W 015°25'0 0.0
2015-Mar-23 15:22N 28°09' W 015°25'0 0.0
2015-Mar-23 14:25N 28°09' W 015°25'0 0.0
2015-Mar-23 13:33N 28°09' W 015°25'2 2.3
2015-Mar-23 12:33N 28°07' W 015°23'1616.2
2015-Mar-23 11:33N 28°19' W 015°10'1919.1
2015-Mar-23 10:33N 28°32' W 014°55'65618.7
2015-Mar-21 23:34N 35°60' W 005°27'21917.8
2015-Mar-21 11:18N 37°09' W 001°09'1419.0
2015-Mar-21 10:33N 37°18' W 000°56'1919.4
2015-Mar-21 09:33N 37°31' W 000°37'1616.1
2015-Mar-21 08:33N 37°44' W 000°25'1817.7
2015-Mar-21 07:32N 37°59' W 000°13'12218.9
2015-Mar-21 01:06N 39°44' E 001°07'1018.2
2015-Mar-21 00:33N 39°53' E 001°12'1918.9
2015-Mar-20 23:33N 40°10' E 001°23'1919.0
2015-Mar-20 22:33N 40°27' E 001°34'1918.7
2015-Mar-20 21:33N 40°43' E 001°45'1918.4
2015-Mar-20 20:32N 40°59' E 001°58'2118.8
2015-Mar-20 19:24N 41°19' E 002°10'13 1.3
2015-Mar-20 09:26N 41°23' E 002°26'7 6.1
2015-Mar-20 08:13N 41°20' E 002°17'16 2.9
2015-Mar-20 02:32N 41°06' E 002°06'1616.7
2015-Mar-20 01:34N 40°52' E 001°56'1716.6
2015-Mar-20 00:33N 40°37' E 001°46'1716.6
2015-Mar-19 23:33N 40°22' E 001°36'1615.6
2015-Mar-19 22:33N 40°08' E 001°27'1615.8
2015-Mar-19 21:33N 39°54' E 001°17'13816.4
2015-Mar-19 13:11N 37°55' W 000°11'1115.8
2015-Mar-19 12:28N 37°45' W 000°19'1516.0
2015-Mar-19 11:33N 37°33' W 000°29'1615.7
2015-Mar-19 10:33N 37°23' W 000°44'1616.2
2015-Mar-19 09:34N 37°13' W 000°59'21415.3
2015-Mar-18 19:33N 35°60' W 005°10'1716.7
2015-Mar-18 18:33N 35°57' W 005°31'61816.6
2015-Mar-17 05:21N 29°24' W 014°57'1517.8
2015-Mar-17 04:32N 29°14' W 015°09'1718.0
2015-Mar-17 03:33N 29°02' W 015°24'1818.0
2015-Mar-17 02:33N 28°50' W 015°39'1817.8
2015-Mar-17 01:33N 28°38' W 015°55'1817.6
2015-Mar-17 00:32N 28°29' W 016°12'2 2.1
2015-Mar-16 23:30N 28°29' W 016°15'0 0.0
2015-Mar-16 22:30N 28°29' W 016°15'0 0.0
2015-Mar-16 21:30N 28°29' W 016°15'  
Track history (hours):
 
Tides and Currents Weather Stations Pressure Air Temp Water Temp Dewpoint Dewpoint Depression Visibility Wind Speed Wind Dir Waves Ship Positions

Bouzas

Last reported at 2015-Mar-26 21:21 UTC. Time now 2015-Mar-27 03:35 UTC.
Position N 38°01' W 000°03'.

Length 142 m; draft 5.8 m.

Type: Cargo ship. MMSI: 224029000.

Date/timePositionNaut miles runAvg speedWind from/ knotsBaromVisibWave heightAir tempDewpointWater temp
2015-Mar-26 21:21N 38°01' W 000°03'1418.1
2015-Mar-26 20:33N 37°51' W 000°16'1919.1
2015-Mar-26 19:33N 37°35' W 000°29'1919.0
2015-Mar-26 18:33N 37°22' W 000°47'87717.5
2015-Mar-24 16:27N 29°09' W 015°14'1517.1
2015-Mar-24 15:33N 28°59' W 015°27'1717.2
2015-Mar-24 14:33N 28°48' W 015°42'1717.2
2015-Mar-24 13:33N 28°37' W 015°57'1716.7
2015-Mar-24 12:32N 28°29' W 016°14'1 0.4
2015-Mar-24 11:15N 28°29' W 016°15'0 0.0
2015-Mar-24 10:30N 28°29' W 016°15'0 0.0
2015-Mar-24 09:15N 28°29' W 016°15'0 0.0
2015-Mar-24 08:33N 28°29' W 016°15'0 0.0
2015-Mar-24 07:33N 28°29' W 016°15'0 0.0
2015-Mar-24 06:33N 28°29' W 016°15'0 0.0
2015-Mar-24 05:32N 28°29' W 016°15'0 0.0
2015-Mar-24 03:32N 28°29' W 016°15'0 0.0
2015-Mar-24 02:29N 28°29' W 016°15'0 0.0
2015-Mar-24 01:32N 28°29' W 016°15'0 0.0
2015-Mar-24 00:20N 28°29' W 016°15'0 0.0
2015-Mar-23 23:32N 28°29' W 016°15'0 0.1
2015-Mar-23 22:11N 28°28' W 016°15'812.6
2015-Mar-23 21:33N 28°26' W 016°06'1817.7
2015-Mar-23 20:33N 28°20' W 015°47'1717.5
2015-Mar-23 19:33N 28°14' W 015°29'6 4.7
2015-Mar-23 18:19N 28°09' W 015°25'0 0.0
2015-Mar-23 17:31N 28°09' W 015°25'0 0.0
2015-Mar-23 16:22N 28°09' W 015°25'0 0.0
2015-Mar-23 15:22N 28°09' W 015°25'0 0.0
2015-Mar-23 14:25N 28°09' W 015°25'0 0.0
2015-Mar-23 13:33N 28°09' W 015°25'2 2.3
2015-Mar-23 12:33N 28°07' W 015°23'1616.2
2015-Mar-23 11:33N 28°19' W 015°10'1919.1
2015-Mar-23 10:33N 28°32' W 014°55'65618.7
2015-Mar-21 23:34N 35°60' W 005°27'21917.8
2015-Mar-21 11:18N 37°09' W 001°09'1419.0
2015-Mar-21 10:33N 37°18' W 000°56'1919.4
2015-Mar-21 09:33N 37°31' W 000°37'1616.1
2015-Mar-21 08:33N 37°44' W 000°25'1817.7
2015-Mar-21 07:32N 37°59' W 000°13'12218.9
2015-Mar-21 01:06N 39°44' E 001°07'1018.2
2015-Mar-21 00:33N 39°53' E 001°12'1918.9
2015-Mar-20 23:33N 40°10' E 001°23'1919.0
2015-Mar-20 22:33N 40°27' E 001°34'1918.7
2015-Mar-20 21:33N 40°43' E 001°45'1918.4
2015-Mar-20 20:32N 40°59' E 001°58'2118.8
2015-Mar-20 19:24N 41°19' E 002°10'13 1.3
2015-Mar-20 09:26N 41°23' E 002°26'7 6.1
2015-Mar-20 08:13N 41°20' E 002°17'16 2.9
2015-Mar-20 02:32N 41°06' E 002°06'1616.7
2015-Mar-20 01:34N 40°52' E 001°56'1716.6
2015-Mar-20 00:33N 40°37' E 001°46'1716.6
2015-Mar-19 23:33N 40°22' E 001°36'1615.6
2015-Mar-19 22:33N 40°08' E 001°27'1615.8
2015-Mar-19 21:33N 39°54' E 001°17'13816.4
2015-Mar-19 13:11N 37°55' W 000°11'1115.8
2015-Mar-19 12:28N 37°45' W 000°19'1516.0
2015-Mar-19 11:33N 37°33' W 000°29'1615.7
2015-Mar-19 10:33N 37°23' W 000°44'1616.2
2015-Mar-19 09:34N 37°13' W 000°59'21415.3
2015-Mar-18 19:33N 35°60' W 005°10'1716.7
2015-Mar-18 18:33N 35°57' W 005°31'61816.6
2015-Mar-17 05:21N 29°24' W 014°57'1517.8
2015-Mar-17 04:32N 29°14' W 015°09'1718.0
2015-Mar-17 03:33N 29°02' W 015°24'1818.0
2015-Mar-17 02:33N 28°50' W 015°39'1817.8
2015-Mar-17 01:33N 28°38' W 015°55'1817.6
2015-Mar-17 00:32N 28°29' W 016°12'2 2.1
2015-Mar-16 23:30N 28°29' W 016°15'0 0.0
2015-Mar-16 22:30N 28°29' W 016°15'0 0.0
2015-Mar-16 21:30N 28°29' W 016°15'  

Dump ship's entire track history